createdAt,value
2019-02-20T00:00:51.935Z,99965.56
2019-02-20T00:03:21.479Z,99969.17
2019-02-20T00:05:50.889Z,99964.84
2019-02-20T00:08:20.421Z,99967.80
2019-02-20T00:10:49.818Z,99974.55
2019-02-20T00:13:19.223Z,99972.39
2019-02-20T00:15:48.753Z,99975.79
2019-02-20T00:18:18.234Z,99972.48
2019-02-20T00:20:47.617Z,99974.02
2019-02-20T00:23:17.037Z,99978.59
2019-02-20T00:25:46.556Z,99974.78
2019-02-20T00:28:16.051Z,99964.84
2019-02-20T00:30:45.466Z,99964.14
2019-02-20T00:33:14.863Z,99964.18
2019-02-20T00:35:44.378Z,99970.83
2019-02-20T00:38:13.908Z,99963.55
2019-02-20T00:40:43.313Z,99963.13
2019-02-20T00:43:12.706Z,99963.02
2019-02-20T00:46:04.244Z,99962.53
2019-02-20T00:48:55.446Z,99964.18
2019-02-20T00:51:33.387Z,99956.78
2019-02-20T00:54:05.655Z,99954.24
2019-02-20T00:56:35.048Z,99955.70
2019-02-20T00:59:04.515Z,99957.64
2019-02-20T01:01:34.005Z,99953.34
2019-02-20T01:04:03.494Z,99953.07
2019-02-20T01:06:32.938Z,99952.28
2019-02-20T01:09:02.515Z,99953.14
2019-02-20T01:11:31.991Z,99945.27
2019-02-20T01:14:01.504Z,99946.09
2019-02-20T01:16:30.927Z,99941.83
2019-02-20T01:19:00.306Z,99939.81
2019-02-20T01:21:30.069Z,99941.11
2019-02-20T01:23:59.545Z,99936.44
2019-02-20T01:26:28.951Z,99938.78
2019-02-20T01:28:58.485Z,99940.05
2019-02-20T01:31:27.881Z,99936.61
2019-02-20T01:33:57.283Z,99926.13
2019-02-20T01:36:26.803Z,99927.81
2019-02-20T01:38:56.304Z,99927.91
2019-02-20T01:41:25.702Z,99919.25
2019-02-20T01:43:55.302Z,99920.11
2019-02-20T01:46:24.909Z,99912.83
2019-02-20T01:48:54.681Z,99911.38
2019-02-20T01:51:24.107Z,99908.19
2019-02-20T01:53:53.488Z,99904.30
2019-02-20T01:56:23.001Z,99904.85
2019-02-20T01:58:52.514Z,99907.15
2019-02-20T02:01:21.934Z,99903.30
2019-02-20T02:03:51.340Z,99898.05
2019-02-20T02:06:21.120Z,99894.89
2019-02-20T02:08:50.504Z,99896.19
2019-02-20T02:11:20.004Z,99894.75
2019-02-20T02:13:49.546Z,99897.47
2019-02-20T02:16:18.951Z,99900.55
2019-02-20T02:18:48.354Z,99898.39
2019-02-20T02:21:18.063Z,99888.80
2019-02-20T02:23:47.774Z,99893.38
2019-02-20T02:26:17.128Z,99892.52
2019-02-20T02:28:46.560Z,99896.44
2019-02-20T02:31:16.050Z,99892.66
2019-02-20T02:33:45.541Z,99893.69
2019-02-20T02:36:14.989Z,99892.44
2019-02-20T02:38:44.394Z,99896.67
2019-02-20T02:41:13.866Z,99896.26
2019-02-20T02:43:43.392Z,99893.30
2019-02-20T02:46:12.946Z,99888.21
2019-02-20T02:48:42.758Z,99891.27
2019-02-20T02:51:12.206Z,99890.22
2019-02-20T02:53:41.710Z,99883.38
2019-02-20T02:56:11.190Z,99887.03
2019-02-20T02:58:40.955Z,99882.23
2019-02-20T03:01:10.321Z,99883.95
2019-02-20T03:03:39.733Z,99884.42
2019-02-20T03:06:09.266Z,99886.14
2019-02-20T03:08:38.780Z,99878.45
2019-02-20T03:11:08.172Z,99880.77
2019-02-20T03:13:37.618Z,99875.77
2019-02-20T03:16:07.128Z,99878.08
2019-02-20T03:18:36.620Z,99882.59
2019-02-20T03:21:06.088Z,99886.64
2019-02-20T03:23:40.143Z,99890.94
2019-02-20T03:26:06.666Z,99887.61
2019-02-20T03:28:36.124Z,99887.14
2019-02-20T03:31:05.610Z,99888.61
2019-02-20T03:33:35.234Z,99896.48
2019-02-20T03:36:04.693Z,99899.48
2019-02-20T03:38:34.094Z,99895.44
2019-02-20T03:41:03.583Z,99892.33
2019-02-20T03:43:33.292Z,99891.88
2019-02-20T03:46:02.686Z,99885.03
2019-02-20T03:48:32.179Z,99885.42
2019-02-20T03:51:01.903Z,99880.15
2019-02-20T03:53:31.395Z,99875.82
2019-02-20T03:56:01.595Z,99876.50
2019-02-20T03:58:33.186Z,99880.39
2019-02-20T04:01:02.554Z,99885.19
2019-02-20T04:03:32.077Z,99880.00
2019-02-20T04:06:01.694Z,99878.70
2019-02-20T04:08:31.190Z,99879.14
2019-02-20T04:11:00.644Z,99869.30
2019-02-20T04:13:30.093Z,99869.77
2019-02-20T04:15:59.608Z,99874.21
2019-02-20T04:18:29.206Z,99871.22
2019-02-20T04:20:58.666Z,99874.30
2019-02-20T04:23:28.081Z,99866.64
2019-02-20T04:25:57.611Z,99861.06
2019-02-20T04:28:27.167Z,99859.92
2019-02-20T04:30:56.576Z,99865.26
2019-02-20T04:33:25.963Z,99864.55
2019-02-20T04:35:55.533Z,99871.53
2019-02-20T04:38:26.296Z,99870.20
2019-02-20T04:40:55.694Z,99864.23
2019-02-20T04:43:25.318Z,99862.34
2019-02-20T04:45:54.959Z,99856.30
2019-02-20T04:48:24.548Z,99854.05
2019-02-20T04:50:54.245Z,99849.70
2019-02-20T04:53:23.651Z,99854.50
2019-02-20T04:55:53.145Z,99844.47
2019-02-20T04:58:23.672Z,99849.58
2019-02-20T05:00:53.156Z,99852.68
2019-02-20T05:03:23.326Z,99848.63
2019-02-20T05:05:53.119Z,99852.98
2019-02-20T05:08:22.611Z,99848.61
2019-02-20T05:10:52.027Z,99848.16
2019-02-20T05:13:21.463Z,99845.45
2019-02-20T05:15:50.929Z,99852.36
2019-02-20T05:18:20.392Z,99850.17
2019-02-20T05:20:50.044Z,99853.61
2019-02-20T05:23:19.413Z,99855.69
2019-02-20T05:25:48.937Z,99856.52
2019-02-20T05:28:18.402Z,99859.06
2019-02-20T05:30:47.914Z,99864.59
2019-02-20T05:33:17.443Z,99862.78
2019-02-20T05:35:46.971Z,99864.44
2019-02-20T05:38:16.380Z,99874.41
2019-02-20T05:40:47.156Z,99876.63
2019-02-20T05:43:16.668Z,99877.06
2019-02-20T05:45:46.064Z,99882.73
2019-02-20T05:48:15.498Z,99885.66
2019-02-20T05:50:45.460Z,99880.78
2019-02-20T05:53:14.938Z,99892.02
2019-02-20T05:55:44.333Z,99895.84
2019-02-20T05:58:13.764Z,99884.48
2019-02-20T06:00:43.253Z,99885.38
2019-02-20T06:03:12.729Z,99891.23
2019-02-20T06:05:42.299Z,99894.23
2019-02-20T06:08:11.850Z,99905.84
2019-02-20T06:10:41.178Z,99904.45
2019-02-20T06:13:10.604Z,99906.55
2019-02-20T06:15:40.092Z,99907.69
2019-02-20T06:18:09.577Z,99914.09
2019-02-20T06:20:39.030Z,99910.08
2019-02-20T06:23:08.393Z,99911.25
2019-02-20T06:25:37.876Z,99915.47
2019-02-20T06:28:07.387Z,99916.23
2019-02-20T06:30:36.774Z,99919.22
2019-02-20T06:33:06.174Z,99918.73
2019-02-20T06:35:35.658Z,99922.07
2019-02-20T06:38:05.195Z,99917.15
2019-02-20T06:40:34.592Z,99915.22
2019-02-20T06:43:03.972Z,99916.82
2019-02-20T06:45:33.439Z,99910.55
2019-02-20T06:48:02.825Z,99921.67
2019-02-20T06:50:32.490Z,99914.05
2019-02-20T06:53:01.992Z,99921.28
2019-02-20T06:55:31.382Z,99917.23
2019-02-20T06:58:00.789Z,99921.41
2019-02-20T07:00:30.259Z,99924.64
2019-02-20T07:02:59.737Z,99921.09
2019-02-20T07:05:40.579Z,99923.86
2019-02-20T07:09:04.788Z,99916.20
2019-02-20T07:12:05.050Z,99906.78
2019-02-20T07:15:11.269Z,99905.78
2019-02-20T07:18:43.286Z,99904.16
2019-02-20T07:21:47.461Z,99894.67
2019-02-20T07:24:46.584Z,99905.31
2019-02-20T07:27:45.288Z,99905.89
2019-02-20T07:30:14.720Z,99903.96
2019-02-20T07:32:44.154Z,99900.09
2019-02-20T07:35:13.712Z,99898.84
2019-02-20T07:37:43.124Z,99903.06
2019-02-20T07:40:13.691Z,99899.67
2019-02-20T07:42:43.146Z,99896.17
2019-02-20T07:45:14.805Z,99886.81
2019-02-20T07:47:44.188Z,99884.56
2019-02-20T07:50:16.537Z,99883.29
2019-02-20T07:52:46.029Z,99882.89
2019-02-20T07:55:15.514Z,99882.14
2019-02-20T07:57:44.900Z,99880.63
2019-02-20T08:00:15.370Z,99872.86
2019-02-20T08:02:44.893Z,99878.07
2019-02-20T08:05:14.485Z,99866.84
2019-02-20T08:07:43.911Z,99873.12
2019-02-20T08:10:14.589Z,99869.19
2019-02-20T08:12:43.959Z,99863.67
2019-02-20T08:15:13.821Z,99868.08
2019-02-20T08:17:43.264Z,99858.56
2019-02-20T08:20:12.909Z,99865.32
2019-02-20T08:22:42.492Z,99863.34
2019-02-20T08:25:11.972Z,99862.14
2019-02-20T08:27:41.453Z,99862.70
2019-02-20T08:30:13.923Z,99854.38
2019-02-20T08:32:43.275Z,99857.21
2019-02-20T08:35:13.354Z,99857.58
2019-02-20T08:37:42.867Z,99852.97
2019-02-20T08:40:14.524Z,99851.20
2019-02-20T08:42:43.858Z,99848.89
2019-02-20T08:45:13.542Z,99855.22
2019-02-20T08:47:43.011Z,99849.79
2019-02-20T08:50:13.788Z,99845.59
2019-02-20T08:52:43.298Z,99838.93
2019-02-20T08:55:12.908Z,99837.19
2019-02-20T08:57:42.302Z,99838.50
2019-02-20T09:00:13.669Z,99839.61
2019-02-20T09:02:43.163Z,99832.13
2019-02-20T09:05:12.614Z,99832.15
2019-02-20T09:07:42.016Z,99827.02
2019-02-20T09:10:11.565Z,99829.25
2019-02-20T09:12:41.069Z,99822.88
2019-02-20T09:15:11.249Z,99823.23
2019-02-20T09:17:40.674Z,99820.56
2019-02-20T09:20:10.447Z,99815.92
2019-02-20T09:22:39.948Z,99816.75
2019-02-20T09:25:19.236Z,99813.55
2019-02-20T09:27:41.406Z,99808.70
2019-02-20T09:30:12.971Z,99801.70
2019-02-20T09:32:42.344Z,99797.57
2019-02-20T09:35:11.931Z,99794.31
2019-02-20T09:37:41.438Z,99790.66
2019-02-20T09:40:13.354Z,99791.22
2019-02-20T09:42:43.952Z,99793.45
2019-02-20T09:45:13.523Z,99789.75
2019-02-20T09:47:44.574Z,99786.08
2019-02-20T09:50:14.084Z,99775.01
2019-02-20T09:52:52.025Z,99775.62
2019-02-20T09:55:14.663Z,99776.98
2019-02-20T09:57:44.407Z,99774.05
2019-02-20T10:00:15.045Z,99767.19
2019-02-20T10:02:44.463Z,99762.52
2019-02-20T10:05:13.954Z,99763.56
2019-02-20T10:07:43.430Z,99749.90
2019-02-20T10:10:12.852Z,99754.47
2019-02-20T10:12:42.273Z,99749.71
2019-02-20T10:15:12.629Z,99743.34
2019-02-20T10:17:42.111Z,99741.03
2019-02-20T10:20:11.683Z,99740.74
2019-02-20T10:22:41.048Z,99733.18
2019-02-20T10:25:10.732Z,99722.53
2019-02-20T10:27:40.260Z,99730.94
2019-02-20T10:30:12.931Z,99723.42
2019-02-20T10:32:42.271Z,99715.88
2019-02-20T10:35:12.176Z,99715.44
2019-02-20T10:37:41.778Z,99719.68
2019-02-20T10:40:11.196Z,99713.66
2019-02-20T10:42:40.630Z,99712.90
2019-02-20T10:45:10.429Z,99700.69
2019-02-20T10:47:40.007Z,99704.08
2019-02-20T10:50:10.128Z,99701.66
2019-02-20T10:52:39.595Z,99694.30
2019-02-20T10:55:09.094Z,99693.93
2019-02-20T10:57:38.531Z,99688.14
2019-02-20T11:00:23.390Z,99690.44
2019-02-20T11:02:46.894Z,99681.37
2019-02-20T11:05:16.683Z,99686.85
2019-02-20T11:07:46.078Z,99676.30
2019-02-20T11:10:15.671Z,99667.42
2019-02-20T11:12:45.135Z,99668.30
2019-02-20T11:15:14.508Z,99667.70
2019-02-20T11:17:43.945Z,99670.61
2019-02-20T11:20:13.859Z,99668.19
2019-02-20T11:22:43.369Z,99657.02
2019-02-20T11:25:13.072Z,99649.72
2019-02-20T11:27:42.441Z,99650.00
2019-02-20T11:30:14.904Z,99650.96
2019-02-20T11:32:44.558Z,99646.24
2019-02-20T11:35:14.048Z,99636.53
2019-02-20T11:37:43.522Z,99645.39
2019-02-20T11:40:13.041Z,99642.47
2019-02-20T11:42:42.408Z,99642.83
2019-02-20T11:45:11.949Z,99637.83
2019-02-20T11:47:41.469Z,99637.47
2019-02-20T11:50:11.507Z,99638.31
2019-02-20T11:52:41.038Z,99633.56
2019-02-20T11:55:10.624Z,99624.20
2019-02-20T11:57:40.194Z,99627.37
2019-02-20T12:00:10.601Z,99626.85
2019-02-20T12:02:39.997Z,99606.67
2019-02-20T12:05:09.554Z,99622.67
2019-02-20T12:07:39.068Z,99627.92
2019-02-20T12:10:08.866Z,99618.83
2019-02-20T12:12:38.348Z,99613.97
2019-02-20T12:15:08.203Z,99613.22
2019-02-20T12:17:37.570Z,99619.41
2019-02-20T12:20:07.636Z,99619.64
2019-02-20T12:22:37.274Z,99614.56
2019-02-20T12:25:06.779Z,99611.53
2019-02-20T12:27:36.136Z,99608.33
2019-02-20T12:30:06.585Z,99618.53
2019-02-20T12:32:36.045Z,99609.66
2019-02-20T12:35:05.691Z,99603.59
2019-02-20T12:37:35.088Z,99600.43
2019-02-20T12:40:05.167Z,99597.27
2019-02-20T12:42:39.236Z,99599.19
2019-02-20T12:45:08.758Z,99594.11
2019-02-20T12:47:38.157Z,99595.19
2019-02-20T12:50:08.234Z,99595.19
2019-02-20T12:52:37.621Z,99594.11
2019-02-20T12:55:08.646Z,99595.05
2019-02-20T12:57:38.392Z,99598.42
2019-02-20T13:00:08.126Z,99607.66
2019-02-20T13:02:45.634Z,99601.72
2019-02-20T13:05:19.844Z,99597.71
2019-02-20T13:07:51.408Z,99598.02
2019-02-20T13:10:22.688Z,99602.88
2019-02-20T13:12:52.028Z,99595.39
2019-02-20T13:15:21.550Z,99601.09
2019-02-20T13:17:51.001Z,99599.27
2019-02-20T13:20:21.319Z,99596.73
2019-02-20T13:22:51.156Z,99588.70
2019-02-20T13:25:21.098Z,99592.31
2019-02-20T13:27:50.695Z,99600.33
2019-02-20T13:30:20.380Z,99598.16
2019-02-20T13:32:51.029Z,99598.38
2019-02-20T13:35:20.682Z,99592.19
2019-02-20T13:37:50.253Z,99598.29
2019-02-20T13:40:19.721Z,99602.56
2019-02-20T13:42:49.220Z,99593.16
2019-02-20T13:45:18.646Z,99598.42
2019-02-20T13:47:48.017Z,99601.11
2019-02-20T13:50:17.966Z,99599.14
2019-02-20T13:52:52.270Z,99599.64
2019-02-20T13:55:18.874Z,99597.59
2019-02-20T13:57:48.284Z,99596.16
2019-02-20T14:00:17.762Z,99602.26
2019-02-20T14:02:47.315Z,99596.34
2019-02-20T14:05:16.824Z,99610.64
2019-02-20T14:07:46.277Z,99605.30
2019-02-20T14:10:15.751Z,99601.55
2019-02-20T14:12:45.140Z,99608.59
2019-02-20T14:15:14.782Z,99607.52
2019-02-20T14:17:44.286Z,99607.52
2019-02-20T14:20:13.999Z,99613.22
2019-02-20T14:22:43.740Z,99611.89
2019-02-20T14:25:13.241Z,99614.20
2019-02-20T14:27:42.740Z,99611.08
2019-02-20T14:30:12.338Z,99608.50
2019-02-20T14:32:41.766Z,99606.61
2019-02-20T14:35:11.844Z,99601.62
2019-02-20T14:37:41.652Z,99601.62
2019-02-20T14:40:11.088Z,99608.89
2019-02-20T14:42:40.768Z,99608.89
2019-02-20T14:45:11.361Z,99615.47
2019-02-20T14:47:40.961Z,99609.28
2019-02-20T14:50:10.688Z,99625.44
2019-02-20T14:52:40.487Z,99609.05
2019-02-20T14:55:09.900Z,99613.56
2019-02-20T14:57:39.292Z,99613.56
2019-02-20T15:00:11.015Z,99607.14
2019-02-20T15:02:40.713Z,99618.57
2019-02-20T15:05:11.992Z,99616.34
2019-02-20T15:07:41.601Z,99616.34
2019-02-20T15:10:12.226Z,99607.00
2019-02-20T15:12:41.786Z,99615.15
2019-02-20T15:15:11.308Z,99618.07
2019-02-20T15:17:40.712Z,99614.54
2019-02-20T15:20:11.197Z,99617.59
2019-02-20T15:22:40.833Z,99613.69
2019-02-20T15:25:10.438Z,99619.01
2019-02-20T15:27:39.874Z,99616.48
2019-02-20T15:30:12.332Z,99623.98
2019-02-20T15:32:42.118Z,99627.14
2019-02-20T15:35:11.933Z,99630.03
2019-02-20T15:37:41.338Z,99635.45
2019-02-20T15:40:11.242Z,99635.31
2019-02-20T15:42:40.693Z,99635.03
2019-02-20T15:45:11.181Z,99641.94
2019-02-20T15:47:40.832Z,99637.99
2019-02-20T15:50:11.434Z,99639.16
2019-02-20T15:52:40.971Z,99642.27
2019-02-20T15:55:11.510Z,99646.83
2019-02-20T15:57:41.329Z,99650.69
2019-02-20T16:00:12.598Z,99656.57
2019-02-20T16:02:42.664Z,99662.09
2019-02-20T16:05:12.859Z,99668.08
2019-02-20T16:07:42.263Z,99672.00
2019-02-20T16:10:11.919Z,99680.44
2019-02-20T16:12:43.045Z,99681.32
2019-02-20T16:15:14.675Z,99683.30
2019-02-20T16:17:44.940Z,99683.54
2019-02-20T16:20:15.040Z,99687.27
2019-02-20T16:22:44.469Z,99702.47
2019-02-20T16:25:14.689Z,99695.88
2019-02-20T16:27:47.020Z,99709.05
2019-02-20T16:30:15.448Z,99703.69
2019-02-20T16:32:45.760Z,99721.65
2019-02-20T16:35:15.522Z,99719.66
2019-02-20T16:37:45.012Z,99719.03
2019-02-20T16:40:14.775Z,99727.85
2019-02-20T16:42:44.163Z,99733.02
2019-02-20T16:45:22.023Z,99736.93
2019-02-20T16:47:51.906Z,99739.14
2019-02-20T16:50:21.346Z,99739.83
2019-02-20T16:52:50.858Z,99753.72
2019-02-20T16:55:22.449Z,99751.66
2019-02-20T16:57:56.658Z,99758.06
2019-02-20T17:00:23.429Z,99769.86
2019-02-20T17:02:53.174Z,99763.11
2019-02-20T17:05:22.557Z,99770.36
2019-02-20T17:07:52.270Z,99787.16
2019-02-20T17:10:21.765Z,99791.73
2019-02-20T17:12:51.225Z,99778.86
2019-02-20T17:15:20.729Z,99787.38
2019-02-20T17:17:50.499Z,99796.34
2019-02-20T17:20:20.017Z,99791.89
2019-02-20T17:22:49.626Z,99794.34
2019-02-20T17:25:20.088Z,99799.93
2019-02-20T17:27:49.475Z,99800.96
2019-02-20T17:30:19.105Z,99805.81
2019-02-20T17:32:48.890Z,99806.34
2019-02-20T17:35:18.494Z,99805.78
2019-02-20T17:37:47.984Z,99807.95
2019-02-20T17:40:17.467Z,99806.84
2019-02-20T17:42:46.984Z,99813.62
2019-02-20T17:45:16.549Z,99811.23
2019-02-20T17:47:47.092Z,99813.39
2019-02-20T17:50:16.735Z,99814.52
2019-02-20T17:52:46.162Z,99815.56
2019-02-20T17:55:15.641Z,99829.98
2019-02-20T17:57:45.443Z,99833.48
2019-02-20T18:00:15.847Z,99836.84
2019-02-20T18:02:45.230Z,99840.78
2019-02-20T18:05:14.903Z,99845.65
2019-02-20T18:07:49.756Z,99850.12
2019-02-20T18:10:15.805Z,99856.37
2019-02-20T18:12:45.273Z,99856.00
2019-02-20T18:15:15.989Z,99858.49
2019-02-20T18:17:45.506Z,99865.28
2019-02-20T18:20:15.116Z,99869.13
2019-02-20T18:22:44.604Z,99870.45
2019-02-20T18:25:14.098Z,99875.30
2019-02-20T18:27:45.594Z,99884.40
2019-02-20T18:30:15.789Z,99880.42
2019-02-20T18:32:45.360Z,99886.91
2019-02-20T18:35:14.748Z,99881.66
2019-02-20T18:37:44.195Z,99886.35
2019-02-20T18:40:14.878Z,99884.26
2019-02-20T18:42:44.329Z,99892.72
2019-02-20T18:45:13.975Z,99890.16
2019-02-20T18:47:43.374Z,99903.55
2019-02-20T18:50:13.209Z,99901.77
2019-02-20T18:52:42.654Z,99906.33
2019-02-20T18:55:12.174Z,99907.27
2019-02-20T18:57:41.656Z,99911.16
2019-02-20T19:00:13.667Z,99915.08
2019-02-20T19:02:43.059Z,99920.68
2019-02-20T19:05:12.685Z,99918.59
2019-02-20T19:07:42.369Z,99915.39
2019-02-20T19:10:15.681Z,99923.02
2019-02-20T19:13:28.167Z,99925.03
2019-02-20T19:16:36.015Z,99922.64
2019-02-20T19:19:37.321Z,99933.44
2019-02-20T19:22:47.453Z,99936.81
2019-02-20T19:26:02.249Z,99932.76
2019-02-20T19:28:50.144Z,99937.88
2019-02-20T19:31:44.834Z,99939.98
2019-02-20T19:34:48.822Z,99945.61
2019-02-20T19:37:35.140Z,99950.73
2019-02-20T19:41:03.657Z,99958.83
2019-02-20T19:43:50.844Z,99957.11
2019-02-20T19:46:54.952Z,99965.52
2019-02-20T19:50:08.229Z,99969.28
2019-02-20T19:53:05.551Z,99967.42
2019-02-20T19:56:20.634Z,99969.34
2019-02-20T19:59:19.036Z,99976.42
2019-02-20T20:02:32.343Z,99980.45
2019-02-20T20:05:40.798Z,99978.14
2019-02-20T20:08:41.722Z,99981.17
2019-02-20T20:11:54.169Z,99987.94
2019-02-20T20:15:30.975Z,99980.70
2019-02-20T20:18:45.669Z,99980.73
2019-02-20T20:21:43.114Z,99985.45
2019-02-20T20:25:02.971Z,99994.71
2019-02-20T20:28:28.260Z,99990.44
2019-02-20T20:31:32.581Z,99982.34
2019-02-20T20:34:38.894Z,99983.66
2019-02-20T20:38:04.119Z,99984.31
2019-02-20T20:41:19.558Z,99986.47
2019-02-20T20:44:13.012Z,99989.28
2019-02-20T20:47:16.402Z,99992.13
2019-02-20T20:50:16.930Z,99997.22
2019-02-20T20:53:26.167Z,99996.05
2019-02-20T20:56:32.064Z,99997.66
2019-02-20T20:59:20.251Z,99993.20
2019-02-20T21:02:35.436Z,100000.94
2019-02-20T21:05:48.692Z,99998.50
2019-02-20T21:08:51.114Z,100004.30
2019-02-20T21:11:56.968Z,100011.84
2019-02-20T21:14:41.716Z,100016.70
2019-02-20T21:18:01.498Z,100012.00
2019-02-20T21:20:55.840Z,100007.41
2019-02-20T21:24:17.083Z,100011.38
2019-02-20T21:27:04.929Z,100009.70
2019-02-20T21:30:17.363Z,100010.91
2019-02-20T21:33:19.162Z,100019.53
2019-02-20T21:36:19.292Z,100023.80
2019-02-20T21:39:25.212Z,100021.78
2019-02-20T21:42:27.686Z,100023.65
2019-02-20T21:45:09.194Z,100019.30
2019-02-20T21:48:13.943Z,100030.94
2019-02-20T21:51:33.615Z,100037.66
2019-02-20T21:54:55.746Z,100043.41
2019-02-20T21:57:36.195Z,100041.45
2019-02-20T22:00:34.201Z,100043.81
2019-02-20T22:03:34.845Z,100051.57
2019-02-20T22:06:15.059Z,100050.97
2019-02-20T22:09:15.060Z,100052.19
2019-02-20T22:12:24.339Z,100050.20
2019-02-20T22:15:40.328Z,100056.41
2019-02-20T22:18:41.017Z,100057.72
2019-02-20T22:22:01.962Z,100058.65
2019-02-20T22:25:33.640Z,100061.22
2019-02-20T22:28:30.771Z,100057.47
2019-02-20T22:31:35.500Z,100066.17
2019-02-20T22:34:38.676Z,100064.64
2019-02-20T22:37:32.295Z,100066.97
2019-02-20T22:40:31.285Z,100068.50
2019-02-20T22:43:38.204Z,100071.20
2019-02-20T22:46:33.848Z,100069.89
2019-02-20T22:49:27.368Z,100075.42
2019-02-20T22:52:29.360Z,100074.88
2019-02-20T22:55:38.960Z,100076.34
2019-02-20T22:58:22.207Z,100076.95
2019-02-20T23:01:35.365Z,100075.73
2019-02-20T23:04:31.341Z,100081.33
2019-02-20T23:07:49.635Z,100082.00
2019-02-20T23:11:01.659Z,100084.17
2019-02-20T23:14:02.719Z,100079.36
2019-02-20T23:16:32.269Z,100080.54
2019-02-20T23:19:01.665Z,100086.88
2019-02-20T23:21:31.192Z,100086.28
2019-02-20T23:24:00.782Z,100075.94
2019-02-20T23:26:30.165Z,100076.58
2019-02-20T23:28:59.707Z,100082.98
2019-02-20T23:31:29.209Z,100068.41
2019-02-20T23:33:58.701Z,100078.75
2019-02-20T23:36:28.142Z,100083.47
2019-02-20T23:38:57.632Z,100076.47
2019-02-20T23:41:27.017Z,100086.29
2019-02-20T23:43:56.554Z,100089.14
2019-02-20T23:46:26.021Z,100096.52
2019-02-20T23:48:55.515Z,100096.20
2019-02-20T23:51:24.958Z,100101.34
2019-02-20T23:53:54.743Z,100106.62
2019-02-20T23:56:24.242Z,100105.05
2019-02-20T23:58:53.771Z,100109.24
